UNNT/OVB METAR and TAF weather

Enter ICAO airport designator
Station Type Date Time Source
UNNT METAR 2020/04/03 07:30 UTC NOAA

UNNT 030730Z 24008MPS CAVOK 08/M03 Q1023 R25/150065 R16/150065 NOSIG RMK QFE757/1010


Station Type Date Time Source
UNNT Decoded METAR 2020/04/03 07:30 UTC NOAA

Station name not available
Apr 03, 2020 - 03:30 AM EDT / 2020.04.03 0730 UTC
Wind: from the WSW (240 degrees) at 18 MPH (16 KT):0
Visibility: greater than 7 mile(s):0
Temperature: 46 F (8 C)
Dew Point: 26 F (-3 C)
Relative Humidity: 45%
Pressure (altimeter): 30.21 in. Hg (1023 hPa)
ob: UNNT 030730Z 24008MPS CAVOK 08/M03 Q1023 R25/150065 R16/150065 NOSIG RMK QFE757/1010
cycle: 7

Station Type Date Time Source
UNNT TAF 2020/04/03 06:21 UTC NOAA

TAF UNNT 030500Z 0306/0406 24005G10MPS CAVOK
TEMPO 0306/0309 29008G15MPS
BECMG 0309/0312 29003G08MPS

Example: see airport list